sensor_id;sensor_type;location;lat;lon;timestamp;pressure;altitude;pressure_sealevel;temperature;humidity
34374;BME280;20637;55.770;37.592;2022-10-17T00:02:19;100859.91;;;8.20;57.35
34374;BME280;20637;55.770;37.592;2022-10-17T00:04:44;100863.69;;;8.18;57.35
34374;BME280;20637;55.770;37.592;2022-10-17T00:07:10;100871.41;;;8.22;56.87
34374;BME280;20637;55.770;37.592;2022-10-17T00:09:35;100857.22;;;8.20;56.91
34374;BME280;20637;55.770;37.592;2022-10-17T00:12:01;100849.38;;;8.17;56.86
34374;BME280;20637;55.770;37.592;2022-10-17T00:14:27;100846.94;;;8.14;57.08
34374;BME280;20637;55.770;37.592;2022-10-17T00:16:52;100857.81;;;8.12;56.95
34374;BME280;20637;55.770;37.592;2022-10-17T00:19:18;100843.25;;;8.15;57.57
34374;BME280;20637;55.770;37.592;2022-10-17T00:21:43;100853.91;;;8.17;57.73
34374;BME280;20637;55.770;37.592;2022-10-17T00:24:08;100840.72;;;8.13;57.26
34374;BME280;20637;55.770;37.592;2022-10-17T00:26:34;100843.41;;;8.13;57.92
34374;BME280;20637;55.770;37.592;2022-10-17T00:28:59;100835.19;;;8.15;57.32
34374;BME280;20637;55.770;37.592;2022-10-17T00:31:25;100841.56;;;8.14;57.25
34374;BME280;20637;55.770;37.592;2022-10-17T00:33:51;100827.28;;;8.13;57.14
34374;BME280;20637;55.770;37.592;2022-10-17T00:36:21;100823.81;;;8.11;57.31
34374;BME280;20637;55.770;37.592;2022-10-17T00:38:48;100817.72;;;8.09;58.07
34374;BME280;20637;55.770;37.592;2022-10-17T00:41:16;100816.88;;;8.09;57.66
34374;BME280;20637;55.770;37.592;2022-10-17T00:44:03;100820.53;;;8.08;58.07
34374;BME280;20637;55.770;37.592;2022-10-17T00:46:33;100814.28;;;8.07;57.52
34374;BME280;20637;55.770;37.592;2022-10-17T00:48:59;100820.41;;;8.09;57.75
34374;BME280;20637;55.770;37.592;2022-10-17T00:52:27;100808.91;;;8.07;57.94
34374;BME280;20637;55.770;37.592;2022-10-17T00:54:22;100807.22;;;8.06;57.76
34374;BME280;20637;55.770;37.592;2022-10-17T00:56:50;100795.34;;;8.09;57.75
34374;BME280;20637;55.770;37.592;2022-10-17T00:59:17;100797.94;;;8.10;58.13
34374;BME280;20637;55.770;37.592;2022-10-17T01:01:56;100788.16;;;8.09;57.77
34374;BME280;20637;55.770;37.592;2022-10-17T01:04:25;100793.03;;;8.04;58.10
34374;BME280;20637;55.770;37.592;2022-10-17T01:06:51;100783.41;;;8.02;58.40
34374;BME280;20637;55.770;37.592;2022-10-17T01:09:16;100776.31;;;8.01;57.90
34374;BME280;20637;55.770;37.592;2022-10-17T01:11:49;100777.41;;;7.98;58.43
34374;BME280;20637;55.770;37.592;2022-10-17T01:14:30;100773.00;;;7.97;57.96
34374;BME280;20637;55.770;37.592;2022-10-17T01:16:59;100775.09;;;7.94;58.36
34374;BME280;20637;55.770;37.592;2022-10-17T01:19:42;100769.13;;;7.90;58.06
34374;BME280;20637;55.770;37.592;2022-10-17T01:22:23;100762.00;;;7.89;58.00
34374;BME280;20637;55.770;37.592;2022-10-17T01:30:18;100763.75;;;7.79;59.10
34374;BME280;20637;55.770;37.592;2022-10-17T01:33:23;100750.56;;;7.76;59.00
34374;BME280;20637;55.770;37.592;2022-10-17T01:38:11;100757.88;;;7.74;58.78
34374;BME280;20637;55.770;37.592;2022-10-17T01:40:48;100754.31;;;7.74;59.37
34374;BME280;20637;55.770;37.592;2022-10-17T01:43:17;100744.44;;;7.74;59.46
34374;BME280;20637;55.770;37.592;2022-10-17T01:45:57;100740.03;;;7.73;59.00
34374;BME280;20637;55.770;37.592;2022-10-17T01:48:26;100733.94;;;7.71;59.29
34374;BME280;20637;55.770;37.592;2022-10-17T01:50:56;100733.34;;;7.68;59.33
34374;BME280;20637;55.770;37.592;2022-10-17T01:53:33;100726.34;;;7.65;59.25
34374;BME280;20637;55.770;37.592;2022-10-17T01:56:01;100719.28;;;7.64;59.21
34374;BME280;20637;55.770;37.592;2022-10-17T01:58:32;100723.81;;;7.63;59.72
34374;BME280;20637;55.770;37.592;2022-10-17T02:01:02;100714.78;;;7.64;59.27
34374;BME280;20637;55.770;37.592;2022-10-17T02:03:30;100720.16;;;7.64;59.61
34374;BME280;20637;55.770;37.592;2022-10-17T02:05:58;100726.50;;;7.63;59.70
34374;BME280;20637;55.770;37.592;2022-10-17T02:08:27;100717.56;;;7.63;59.71
34374;BME280;20637;55.770;37.592;2022-10-17T02:13:27;100725.75;;;7.61;59.79
34374;BME280;20637;55.770;37.592;2022-10-17T02:18:30;100723.41;;;7.57;59.85
34374;BME280;20637;55.770;37.592;2022-10-17T02:21:06;100723.66;;;7.54;59.81
34374;BME280;20637;55.770;37.592;2022-10-17T02:23:39;100715.50;;;7.55;60.11
34374;BME280;20637;55.770;37.592;2022-10-17T02:26:14;100708.03;;;7.59;59.44
34374;BME280;20637;55.770;37.592;2022-10-17T02:28:43;100718.78;;;7.59;59.37
34374;BME280;20637;55.770;37.592;2022-10-17T02:34:25;100717.81;;;7.60;59.56
34374;BME280;20637;55.770;37.592;2022-10-17T02:36:55;100715.34;;;7.57;59.81
34374;BME280;20637;55.770;37.592;2022-10-17T02:39:23;100707.81;;;7.51;59.66
34374;BME280;20637;55.770;37.592;2022-10-17T02:41:50;100714.03;;;7.51;59.94
34374;BME280;20637;55.770;37.592;2022-10-17T02:44:16;100705.13;;;7.51;60.28
34374;BME280;20637;55.770;37.592;2022-10-17T02:46:43;100698.78;;;7.52;60.07
34374;BME280;20637;55.770;37.592;2022-10-17T02:49:17;100695.34;;;7.50;60.08
34374;BME280;20637;55.770;37.592;2022-10-17T02:51:46;100689.09;;;7.49;60.44
34374;BME280;20637;55.770;37.592;2022-10-17T02:56:42;100686.22;;;7.41;60.40
34374;BME280;20637;55.770;37.592;2022-10-17T02:59:11;100681.06;;;7.38;60.57
34374;BME280;20637;55.770;37.592;2022-10-17T03:01:39;100670.56;;;7.35;60.63
34374;BME280;20637;55.770;37.592;2022-10-17T03:04:11;100684.97;;;7.34;60.83
34374;BME280;20637;55.770;37.592;2022-10-17T03:06:38;100683.28;;;7.33;60.19
34374;BME280;20637;55.770;37.592;2022-10-17T03:09:04;100687.53;;;7.36;60.61
34374;BME280;20637;55.770;37.592;2022-10-17T03:11:30;100679.47;;;7.36;60.69
34374;BME280;20637;55.770;37.592;2022-10-17T03:13:55;100672.88;;;7.40;60.55
34374;BME280;20637;55.770;37.592;2022-10-17T03:16:22;100673.75;;;7.40;60.73
34374;BME280;20637;55.770;37.592;2022-10-17T03:18:47;100660.69;;;7.36;60.84
34374;BME280;20637;55.770;37.592;2022-10-17T03:21:13;100667.16;;;7.33;60.25
34374;BME280;20637;55.770;37.592;2022-10-17T03:23:38;100652.00;;;7.32;60.47
34374;BME280;20637;55.770;37.592;2022-10-17T03:26:05;100652.13;;;7.31;60.84
34374;BME280;20637;55.770;37.592;2022-10-17T03:28:32;100642.50;;;7.28;60.93
34374;BME280;20637;55.770;37.592;2022-10-17T03:30:58;100637.13;;;7.28;60.83
34374;BME280;20637;55.770;37.592;2022-10-17T03:33:24;100633.47;;;7.29;61.01
34374;BME280;20637;55.770;37.592;2022-10-17T03:35:49;100638.59;;;7.32;61.00
34374;BME280;20637;55.770;37.592;2022-10-17T03:38:16;100631.38;;;7.33;60.67
34374;BME280;20637;55.770;37.592;2022-10-17T03:40:42;100626.72;;;7.35;60.70
34374;BME280;20637;55.770;37.592;2022-10-17T03:43:08;100626.47;;;7.38;61.22
34374;BME280;20637;55.770;37.592;2022-10-17T03:45:35;100629.31;;;7.36;60.84
34374;BME280;20637;55.770;37.592;2022-10-17T03:48:01;100621.09;;;7.38;60.53
34374;BME280;20637;55.770;37.592;2022-10-17T03:50:27;100614.03;;;7.37;60.95
34374;BME280;20637;55.770;37.592;2022-10-17T03:52:54;100624.03;;;7.35;60.73
34374;BME280;20637;55.770;37.592;2022-10-17T03:55:19;100615.97;;;7.35;60.59
34374;BME280;20637;55.770;37.592;2022-10-17T03:57:46;100625.16;;;7.32;60.88
34374;BME280;20637;55.770;37.592;2022-10-17T04:00:13;100626.00;;;7.33;60.39
34374;BME280;20637;55.770;37.592;2022-10-17T04:02:48;100610.88;;;7.32;61.02
34374;BME280;20637;55.770;37.592;2022-10-17T04:05:17;100603.53;;;7.34;60.83
34374;BME280;20637;55.770;37.592;2022-10-17T04:07:43;100605.50;;;7.32;60.79
34374;BME280;20637;55.770;37.592;2022-10-17T04:10:09;100606.47;;;7.31;60.90
34374;BME280;20637;55.770;37.592;2022-10-17T04:12:35;100599.25;;;7.31;60.72
34374;BME280;20637;55.770;37.592;2022-10-17T04:15:01;100615.63;;;7.28;60.77
34374;BME280;20637;55.770;37.592;2022-10-17T04:17:29;100616.00;;;7.24;60.85
34374;BME280;20637;55.770;37.592;2022-10-17T04:19:55;100609.50;;;7.26;61.07
34374;BME280;20637;55.770;37.592;2022-10-17T04:22:21;100591.47;;;7.28;61.24
34374;BME280;20637;55.770;37.592;2022-10-17T04:24:47;100605.75;;;7.29;61.32
34374;BME280;20637;55.770;37.592;2022-10-17T04:27:33;100597.81;;;7.27;61.09
34374;BME280;20637;55.770;37.592;2022-10-17T04:30:00;100579.38;;;7.23;61.16
34374;BME280;20637;55.770;37.592;2022-10-17T04:32:25;100581.94;;;7.24;61.08
34374;BME280;20637;55.770;37.592;2022-10-17T04:35:01;100577.28;;;7.26;61.78
34374;BME280;20637;55.770;37.592;2022-10-17T04:37:28;100583.31;;;7.30;61.03
34374;BME280;20637;55.770;37.592;2022-10-17T04:39:55;100581.31;;;7.32;61.14
34374;BME280;20637;55.770;37.592;2022-10-17T04:42:21;100577.53;;;7.34;60.97
34374;BME280;20637;55.770;37.592;2022-10-17T04:44:48;100574.97;;;7.33;61.08
34374;BME280;20637;55.770;37.592;2022-10-17T04:47:16;100576.06;;;7.30;61.12
34374;BME280;20637;55.770;37.592;2022-10-17T04:49:42;100577.06;;;7.29;61.12
34374;BME280;20637;55.770;37.592;2022-10-17T04:52:09;100586.09;;;7.28;61.60
34374;BME280;20637;55.770;37.592;2022-10-17T04:54:42;100565.59;;;7.27;61.42
34374;BME280;20637;55.770;37.592;2022-10-17T04:57:09;100573.28;;;7.32;61.04
34374;BME280;20637;55.770;37.592;2022-10-17T04:59:35;100579.34;;;7.34;61.22
34374;BME280;20637;55.770;37.592;2022-10-17T05:02:12;100571.06;;;7.37;61.01
34374;BME280;20637;55.770;37.592;2022-10-17T05:04:38;100563.88;;;7.37;61.11
34374;BME280;20637;55.770;37.592;2022-10-17T05:07:03;100566.41;;;7.39;61.22
34374;BME280;20637;55.770;37.592;2022-10-17T05:09:50;100559.97;;;7.41;61.45
34374;BME280;20637;55.770;37.592;2022-10-17T05:12:17;100568.84;;;7.42;61.30
34374;BME280;20637;55.770;37.592;2022-10-17T05:14:43;100559.81;;;7.43;61.32
34374;BME280;20637;55.770;37.592;2022-10-17T05:17:09;100551.75;;;7.43;61.00
34374;BME280;20637;55.770;37.592;2022-10-17T05:19:35;100564.06;;;7.45;61.38
34374;BME280;20637;55.770;37.592;2022-10-17T05:22:01;100551.50;;;7.46;61.04
34374;BME280;20637;55.770;37.592;2022-10-17T05:24:27;100549.56;;;7.48;60.97
34374;BME280;20637;55.770;37.592;2022-10-17T05:26:52;100536.84;;;7.50;61.32
34374;BME280;20637;55.770;37.592;2022-10-17T05:29:18;100534.16;;;7.50;61.14
34374;BME280;20637;55.770;37.592;2022-10-17T05:31:49;100545.75;;;7.50;60.99
34374;BME280;20637;55.770;37.592;2022-10-17T05:34:14;100542.09;;;7.51;61.02
34374;BME280;20637;55.770;37.592;2022-10-17T05:36:40;100548.31;;;7.52;60.86
34374;BME280;20637;55.770;37.592;2022-10-17T05:39:07;100545.25;;;7.56;61.35
34374;BME280;20637;55.770;37.592;2022-10-17T05:41:33;100536.78;;;7.61;60.88
34374;BME280;20637;55.770;37.592;2022-10-17T05:43:59;100520.66;;;7.61;60.90
34374;BME280;20637;55.770;37.592;2022-10-17T05:46:36;100518.72;;;7.63;60.56
34374;BME280;20637;55.770;37.592;2022-10-17T05:49:02;100514.06;;;7.65;61.02
34374;BME280;20637;55.770;37.592;2022-10-17T05:51:27;100512.81;;;7.69;60.64
34374;BME280;20637;55.770;37.592;2022-10-17T05:53:54;100510.63;;;7.74;60.60
34374;BME280;20637;55.770;37.592;2022-10-17T05:56:24;100503.72;;;7.81;60.51
34374;BME280;20637;55.770;37.592;2022-10-17T05:58:49;100509.19;;;7.91;60.18
34374;BME280;20637;55.770;37.592;2022-10-17T06:01:26;100516.59;;;7.98;60.10
34374;BME280;20637;55.770;37.592;2022-10-17T06:03:52;100510.84;;;8.03;59.67
34374;BME280;20637;55.770;37.592;2022-10-17T06:06:18;100522.19;;;8.06;60.13
34374;BME280;20637;55.770;37.592;2022-10-17T06:08:45;100512.03;;;8.10;59.58
34374;BME280;20637;55.770;37.592;2022-10-17T06:11:14;100511.88;;;8.11;59.68
34374;BME280;20637;55.770;37.592;2022-10-17T06:13:39;100509.19;;;8.11;59.29
34374;BME280;20637;55.770;37.592;2022-10-17T06:16:12;100512.34;;;8.17;59.80
34374;BME280;20637;55.770;37.592;2022-10-17T06:18:37;100504.00;;;8.20;60.08
34374;BME280;20637;55.770;37.592;2022-10-17T06:21:08;100499.63;;;8.19;59.38
34374;BME280;20637;55.770;37.592;2022-10-17T06:23:37;100500.81;;;8.26;59.70
34374;BME280;20637;55.770;37.592;2022-10-17T06:26:15;100512.28;;;8.28;58.96
34374;BME280;20637;55.770;37.592;2022-10-17T06:28:41;100509.59;;;8.28;59.42
34374;BME280;20637;55.770;37.592;2022-10-17T06:31:07;100505.06;;;8.28;58.87
34374;BME280;20637;55.770;37.592;2022-10-17T06:33:34;100512.78;;;8.33;59.46
34374;BME280;20637;55.770;37.592;2022-10-17T06:36:01;100511.31;;;8.29;59.11
34374;BME280;20637;55.770;37.592;2022-10-17T06:38:29;100508.72;;;8.27;58.87
34374;BME280;20637;55.770;37.592;2022-10-17T06:41:18;100508.47;;;8.30;59.13
34374;BME280;20637;55.770;37.592;2022-10-17T06:43:44;100498.97;;;8.26;59.17
34374;BME280;20637;55.770;37.592;2022-10-17T06:46:28;100490.75;;;8.28;58.72
34374;BME280;20637;55.770;37.592;2022-10-17T06:48:59;100474.63;;;8.28;59.16
34374;BME280;20637;55.770;37.592;2022-10-17T06:51:41;100460.81;;;8.32;59.13
34374;BME280;20637;55.770;37.592;2022-10-17T06:54:10;100454.75;;;8.40;59.18
34374;BME280;20637;55.770;37.592;2022-10-17T06:57:02;100460.97;;;8.40;59.26
34374;BME280;20637;55.770;37.592;2022-10-17T06:59:47;100470.03;;;8.39;58.95
34374;BME280;20637;55.770;37.592;2022-10-17T07:02:18;100461.84;;;8.41;59.30
34374;BME280;20637;55.770;37.592;2022-10-17T07:04:45;100467.34;;;8.39;59.51
34374;BME280;20637;55.770;37.592;2022-10-17T07:07:11;100470.63;;;8.43;59.37
34374;BME280;20637;55.770;37.592;2022-10-17T07:09:37;100470.63;;;8.43;59.37
34374;BME280;20637;55.770;37.592;2022-10-17T07:12:02;100476.63;;;8.56;59.28
34374;BME280;20637;55.770;37.592;2022-10-17T07:14:31;100474.81;;;8.56;59.06
34374;BME280;20637;55.770;37.592;2022-10-17T07:16:57;100466.56;;;8.58;59.00
34374;BME280;20637;55.770;37.592;2022-10-17T07:19:25;100461.66;;;8.63;58.88
34374;BME280;20637;55.770;37.592;2022-10-17T07:21:51;100451.00;;;8.61;59.04
34374;BME280;20637;55.770;37.592;2022-10-17T07:24:17;100451.47;;;8.67;59.13
34374;BME280;20637;55.770;37.592;2022-10-17T07:26:46;100455.47;;;8.72;58.60
34374;BME280;20637;55.770;37.592;2022-10-17T07:29:12;100461.53;;;8.74;58.26
34374;BME280;20637;55.770;37.592;2022-10-17T07:31:42;100447.97;;;8.76;59.25
34374;BME280;20637;55.770;37.592;2022-10-17T07:34:10;100444.69;;;8.72;58.64
34374;BME280;20637;55.770;37.592;2022-10-17T07:36:35;100437.88;;;8.68;58.63
34374;BME280;20637;55.770;37.592;2022-10-17T07:39:03;100438.84;;;8.67;59.23
34374;BME280;20637;55.770;37.592;2022-10-17T07:41:30;100438.44;;;8.72;58.68
34374;BME280;20637;55.770;37.592;2022-10-17T07:43:55;100440.28;;;8.71;58.83
34374;BME280;20637;55.770;37.592;2022-10-17T07:46:27;100450.94;;;8.73;58.64
34374;BME280;20637;55.770;37.592;2022-10-17T07:48:53;100452.78;;;8.72;58.86
34374;BME280;20637;55.770;37.592;2022-10-17T07:51:20;100441.25;;;8.70;59.22
34374;BME280;20637;55.770;37.592;2022-10-17T07:53:46;100444.13;;;8.69;58.96
34374;BME280;20637;55.770;37.592;2022-10-17T07:56:11;100434.44;;;8.66;59.37
34374;BME280;20637;55.770;37.592;2022-10-17T07:58:37;100445.38;;;8.65;59.66
34374;BME280;20637;55.770;37.592;2022-10-17T08:01:03;100438.00;;;8.67;59.92
34374;BME280;20637;55.770;37.592;2022-10-17T08:03:29;100448.25;;;8.73;59.87
34374;BME280;20637;55.770;37.592;2022-10-17T08:05:58;100429.81;;;8.68;60.54
34374;BME280;20637;55.770;37.592;2022-10-17T08:08:24;100459.81;;;8.64;61.32
34374;BME280;20637;55.770;37.592;2022-10-17T08:10:50;100447.56;;;8.50;63.29
34374;BME280;20637;55.770;37.592;2022-10-17T08:13:15;100446.84;;;8.27;64.00
34374;BME280;20637;55.770;37.592;2022-10-17T08:15:40;100438.75;;;8.18;65.01
34374;BME280;20637;55.770;37.592;2022-10-17T08:18:06;100436.06;;;8.18;65.54
34374;BME280;20637;55.770;37.592;2022-10-17T08:20:32;100436.19;;;8.16;66.16
34374;BME280;20637;55.770;37.592;2022-10-17T08:22:57;100455.00;;;8.16;66.70
34374;BME280;20637;55.770;37.592;2022-10-17T08:25:23;100441.56;;;8.16;66.93
34374;BME280;20637;55.770;37.592;2022-10-17T08:27:49;100432.53;;;8.17;66.38
34374;BME280;20637;55.770;37.592;2022-10-17T08:30:14;100432.25;;;8.20;66.47
34374;BME280;20637;55.770;37.592;2022-10-17T08:32:40;100443.59;;;8.24;66.40
34374;BME280;20637;55.770;37.592;2022-10-17T08:35:06;100433.41;;;8.27;66.89
34374;BME280;20637;55.770;37.592;2022-10-17T08:37:31;100439.41;;;8.31;66.65
34374;BME280;20637;55.770;37.592;2022-10-17T08:39:57;100438.44;;;8.32;66.83
34374;BME280;20637;55.770;37.592;2022-10-17T08:42:42;100419.59;;;8.32;66.22
34374;BME280;20637;55.770;37.592;2022-10-17T08:45:19;100413.25;;;8.33;66.27
34374;BME280;20637;55.770;37.592;2022-10-17T08:47:46;100406.59;;;8.37;66.51
34374;BME280;20637;55.770;37.592;2022-10-17T08:50:22;100411.69;;;8.40;66.73
34374;BME280;20637;55.770;37.592;2022-10-17T08:52:53;100413.13;;;8.44;66.15
34374;BME280;20637;55.770;37.592;2022-10-17T08:57:56;100439.38;;;8.51;66.69
34374;BME280;20637;55.770;37.592;2022-10-17T09:00:22;100434.84;;;8.52;66.48
34374;BME280;20637;55.770;37.592;2022-10-17T09:03:02;100428.19;;;8.56;65.97
34374;BME280;20637;55.770;37.592;2022-10-17T09:08:11;100428.16;;;8.46;67.50
34374;BME280;20637;55.770;37.592;2022-10-17T09:18:17;100422.28;;;8.11;69.86
34374;BME280;20637;55.770;37.592;2022-10-17T09:20:46;100423.22;;;8.00;70.45
34374;BME280;20637;55.770;37.592;2022-10-17T09:23:16;100417.66;;;7.92;71.46
34374;BME280;20637;55.770;37.592;2022-10-17T09:25:43;100412.81;;;7.86;72.57
34374;BME280;20637;55.770;37.592;2022-10-17T09:33:14;100432.00;;;7.61;74.57
34374;BME280;20637;55.770;37.592;2022-10-17T09:35:40;100426.25;;;7.45;75.38
34374;BME280;20637;55.770;37.592;2022-10-17T09:38:08;100423.94;;;7.40;76.20
34374;BME280;20637;55.770;37.592;2022-10-17T09:40:36;100418.09;;;7.35;77.03
34374;BME280;20637;55.770;37.592;2022-10-17T09:43:02;100398.78;;;7.41;77.55
34374;BME280;20637;55.770;37.592;2022-10-17T09:45:29;100396.81;;;7.43;77.98
34374;BME280;20637;55.770;37.592;2022-10-17T09:50:28;100404.22;;;7.51;78.03
34374;BME280;20637;55.770;37.592;2022-10-17T09:52:54;100404.16;;;7.62;78.45
34374;BME280;20637;55.770;37.592;2022-10-17T09:57:59;100402.78;;;7.68;78.19
34374;BME280;20637;55.770;37.592;2022-10-17T10:00:28;100390.91;;;7.70;78.47
34374;BME280;20637;55.770;37.592;2022-10-17T10:03:12;100384.41;;;7.73;78.33
34374;BME280;20637;55.770;37.592;2022-10-17T10:05:39;100387.72;;;7.76;78.18
34374;BME280;20637;55.770;37.592;2022-10-17T10:08:05;100380.38;;;7.78;78.61
34374;BME280;20637;55.770;37.592;2022-10-17T10:10:36;100377.56;;;7.80;77.80
34374;BME280;20637;55.770;37.592;2022-10-17T10:13:04;100380.38;;;7.78;78.20
34374;BME280;20637;55.770;37.592;2022-10-17T10:17:56;100361.28;;;7.81;78.00
34374;BME280;20637;55.770;37.592;2022-10-17T10:20:32;100373.34;;;7.87;78.07
34374;BME280;20637;55.770;37.592;2022-10-17T10:25:37;100357.06;;;7.88;77.86
34374;BME280;20637;55.770;37.592;2022-10-17T10:28:08;100347.75;;;7.92;77.83
34374;BME280;20637;55.770;37.592;2022-10-17T10:30:34;100338.31;;;7.98;77.15
34374;BME280;20637;55.770;37.592;2022-10-17T10:32:59;100329.66;;;7.94;77.38
34374;BME280;20637;55.770;37.592;2022-10-17T10:35:35;100329.78;;;7.93;77.54
34374;BME280;20637;55.770;37.592;2022-10-17T10:38:02;100327.56;;;7.98;77.61
34374;BME280;20637;55.770;37.592;2022-10-17T10:40:51;100321.63;;;8.04;77.01
34374;BME280;20637;55.770;37.592;2022-10-17T10:44:03;100337.63;;;8.05;76.79
34374;BME280;20637;55.770;37.592;2022-10-17T10:46:04;100330.28;;;8.07;76.60
34374;BME280;20637;55.770;37.592;2022-10-17T10:48:34;100343.59;;;8.09;76.95
34374;BME280;20637;55.770;37.592;2022-10-17T10:51:04;100339.25;;;8.18;77.18
34374;BME280;20637;55.770;37.592;2022-10-17T10:53:40;100338.53;;;8.15;77.06
34374;BME280;20637;55.770;37.592;2022-10-17T10:58:40;100320.09;;;8.11;76.90
34374;BME280;20637;55.770;37.592;2022-10-17T11:06:27;100316.72;;;8.09;77.13
34374;BME280;20637;55.770;37.592;2022-10-17T11:11:49;100301.88;;;8.14;77.58
34374;BME280;20637;55.770;37.592;2022-10-17T11:21:47;100309.09;;;8.24;77.61
34374;BME280;20637;55.770;37.592;2022-10-17T11:26:49;100302.00;;;8.23;77.95
34374;BME280;20637;55.770;37.592;2022-10-17T11:29:18;100311.38;;;8.28;77.40
34374;BME280;20637;55.770;37.592;2022-10-17T11:31:50;100311.03;;;8.33;77.68
34374;BME280;20637;55.770;37.592;2022-10-17T11:34:19;100303.53;;;8.36;77.81
34374;BME280;20637;55.770;37.592;2022-10-17T11:36:45;100297.16;;;8.37;77.72
34374;BME280;20637;55.770;37.592;2022-10-17T11:39:19;100292.47;;;8.39;78.30
34374;BME280;20637;55.770;37.592;2022-10-17T11:44:20;100293.22;;;8.41;77.56
34374;BME280;20637;55.770;37.592;2022-10-17T11:46:49;100288.81;;;8.40;78.65
34374;BME280;20637;55.770;37.592;2022-10-17T11:49:17;100279.03;;;8.39;78.52
34374;BME280;20637;55.770;37.592;2022-10-17T11:51:53;100270.09;;;8.39;78.89
34374;BME280;20637;55.770;37.592;2022-10-17T11:54:23;100261.47;;;8.35;78.35
34374;BME280;20637;55.770;37.592;2022-10-17T12:01:48;100259.72;;;8.25;79.68
34374;BME280;20637;55.770;37.592;2022-10-17T12:04:18;100257.16;;;8.23;79.53
34374;BME280;20637;55.770;37.592;2022-10-17T12:07:29;100248.38;;;8.21;80.32
34374;BME280;20637;55.770;37.592;2022-10-17T12:12:23;100254.47;;;8.23;80.71
34374;BME280;20637;55.770;37.592;2022-10-17T12:14:49;100246.69;;;8.20;80.54
34374;BME280;20637;55.770;37.592;2022-10-17T12:17:27;100238.31;;;8.23;80.36
34374;BME280;20637;55.770;37.592;2022-10-17T12:22:44;100237.81;;;8.29;81.08
34374;BME280;20637;55.770;37.592;2022-10-17T12:25:15;100228.50;;;8.33;80.93
34374;BME280;20637;55.770;37.592;2022-10-17T12:27:45;100229.47;;;8.32;81.56
34374;BME280;20637;55.770;37.592;2022-10-17T12:32:51;100229.75;;;8.29;81.17
34374;BME280;20637;55.770;37.592;2022-10-17T12:35:18;100236.06;;;8.28;82.05
34374;BME280;20637;55.770;37.592;2022-10-17T12:42:57;100263.59;;;8.32;82.01
34374;BME280;20637;55.770;37.592;2022-10-17T12:48:08;100264.19;;;8.45;81.77
34374;BME280;20637;55.770;37.592;2022-10-17T12:53:18;100270.13;;;8.58;81.36
34374;BME280;20637;55.770;37.592;2022-10-17T12:55:47;100274.66;;;8.57;81.57
34374;BME280;20637;55.770;37.592;2022-10-17T12:58:16;100290.38;;;8.52;81.59
34374;BME280;20637;55.770;37.592;2022-10-17T13:00:51;100301.16;;;8.52;81.14
34374;BME280;20637;55.770;37.592;2022-10-17T13:03:21;100308.09;;;8.55;81.63
34374;BME280;20637;55.770;37.592;2022-10-17T13:05:51;100307.22;;;8.54;80.93
34374;BME280;20637;55.770;37.592;2022-10-17T13:08:27;100308.53;;;8.60;81.59
34374;BME280;20637;55.770;37.592;2022-10-17T13:10:53;100324.09;;;8.66;81.25
34374;BME280;20637;55.770;37.592;2022-10-17T13:13:32;100326.78;;;8.66;81.03
34374;BME280;20637;55.770;37.592;2022-10-17T13:16:00;100333.03;;;8.67;80.86
34374;BME280;20637;55.770;37.592;2022-10-17T13:18:27;100338.41;;;8.67;80.97
34374;BME280;20637;55.770;37.592;2022-10-17T13:20:54;100337.03;;;8.72;80.66
34374;BME280;20637;55.770;37.592;2022-10-17T13:23:21;100332.78;;;8.79;80.57
34374;BME280;20637;55.770;37.592;2022-10-17T13:25:46;100341.44;;;8.83;80.71
34374;BME280;20637;55.770;37.592;2022-10-17T13:28:12;100333.91;;;8.86;80.66
34374;BME280;20637;55.770;37.592;2022-10-17T13:30:38;100328.81;;;8.93;80.61
34374;BME280;20637;55.770;37.592;2022-10-17T13:33:15;100334.19;;;8.93;80.94
34374;BME280;20637;55.770;37.592;2022-10-17T13:35:42;100329.81;;;8.92;80.19
34374;BME280;20637;55.770;37.592;2022-10-17T13:38:09;100335.47;;;8.89;80.43
34374;BME280;20637;55.770;37.592;2022-10-17T13:40:38;100329.94;;;8.90;80.16
34374;BME280;20637;55.770;37.592;2022-10-17T13:43:08;100322.44;;;8.94;80.93
34374;BME280;20637;55.770;37.592;2022-10-17T13:45:36;100315.78;;;8.98;79.99
34374;BME280;20637;55.770;37.592;2022-10-17T13:48:03;100314.38;;;9.03;80.68
34374;BME280;20637;55.770;37.592;2022-10-17T13:50:36;100298.91;;;9.05;80.07
34374;BME280;20637;55.770;37.592;2022-10-17T13:55:31;100286.28;;;8.96;80.05
34374;BME280;20637;55.770;37.592;2022-10-17T13:58:07;100289.72;;;8.98;80.39
34374;BME280;20637;55.770;37.592;2022-10-17T14:00:33;100277.09;;;8.99;80.62
34374;BME280;20637;55.770;37.592;2022-10-17T14:02:59;100265.19;;;9.01;79.97
34374;BME280;20637;55.770;37.592;2022-10-17T14:05:24;100267.88;;;9.01;79.89
34374;BME280;20637;55.770;37.592;2022-10-17T14:07:57;100259.38;;;9.06;80.46
34374;BME280;20637;55.770;37.592;2022-10-17T14:10:25;100261.09;;;9.07;79.84
34374;BME280;20637;55.770;37.592;2022-10-17T14:12:51;100266.19;;;9.10;80.39
34374;BME280;20637;55.770;37.592;2022-10-17T14:15:17;100259.94;;;9.09;80.29
34374;BME280;20637;55.770;37.592;2022-10-17T14:17:44;100259.09;;;9.09;80.15
34374;BME280;20637;55.770;37.592;2022-10-17T14:20:18;100264.34;;;9.11;79.91
34374;BME280;20637;55.770;37.592;2022-10-17T14:22:44;100254.13;;;9.14;79.48
34374;BME280;20637;55.770;37.592;2022-10-17T14:30:39;100269.28;;;9.15;79.67
34374;BME280;20637;55.770;37.592;2022-10-17T14:33:06;100263.19;;;9.13;80.00
34374;BME280;20637;55.770;37.592;2022-10-17T14:35:32;100262.63;;;9.09;79.43
34374;BME280;20637;55.770;37.592;2022-10-17T14:37:59;100265.63;;;9.06;79.40
34374;BME280;20637;55.770;37.592;2022-10-17T14:40:26;100263.34;;;9.02;79.43
34374;BME280;20637;55.770;37.592;2022-10-17T14:42:53;100266.88;;;9.02;80.12